Time;durP1;ratioP1;P1;durP2;ratioP2;P2;SDS_P1;SDS_P2;PMS_P1;PMS_P2;Temp;Humidity;BMP_temperature;BMP_pressure;BME280_temperature;BME280_humidity;BME280_pressure;Samples;Min_cycle;Max_cycle;Signal;HPM_P1;HPM_P2
2021/07/23 00:01:23;;;;;;;;;;;17.30;99.90;;;;;;5086377;28;20031;-82
2021/07/23 00:03:49;;;;;;;9.25;6.13;;;17.30;99.90;;;;;;5090433;28;19915;-82
2021/07/23 00:06:15;;;;;;;;;;;17.30;99.90;;;;;;5094540;28;20038;-82
2021/07/23 00:08:40;;;;;;;10.25;6.35;;;17.30;99.90;;;;;;5112346;28;20268;-82
2021/07/23 00:11:06;;;;;;;;;;;17.40;99.90;;;;;;5110796;28;20407;-81
2021/07/23 00:13:32;;;;;;;11.60;6.70;;;17.30;99.90;;;;;;5082996;28;20369;-81
2021/07/23 00:15:57;;;;;;;;;;;17.30;99.90;;;;;;5112659;28;20031;-81
2021/07/23 00:18:23;;;;;;;9.88;6.47;;;17.40;99.90;;;;;;5108022;28;19916;-82
2021/07/23 00:20:49;;;;;;;;;;;17.40;99.90;;;;;;5109810;28;20047;-82
2021/07/23 00:23:15;;;;;;;11.35;6.95;;;17.40;99.90;;;;;;5098449;28;19916;-82
2021/07/23 00:25:41;;;;;;;;;;;17.40;99.90;;;;;;5112519;28;20118;-81
2021/07/23 00:28:06;;;;;;;10.13;7.45;;;17.40;99.90;;;;;;5109465;28;20002;-82
2021/07/23 00:30:34;;;;;;;10.80;7.32;;;17.40;99.90;;;;;;5094644;28;20050;-82
2021/07/23 00:33:01;;;;;;;9.60;6.70;;;17.40;99.90;;;;;;5110664;28;20035;-83
2021/07/23 00:35:28;;;;;;;11.20;6.93;;;17.40;99.90;;;;;;5109093;28;20063;-83
2021/07/23 00:37:56;;;;;;;12.18;7.30;;;17.40;99.90;;;;;;5099708;28;20130;-82
2021/07/23 00:40:25;;;;;;;10.93;6.82;;;17.40;99.90;;;;;;5106019;28;20055;-82
2021/07/23 00:42:51;;;;;;;10.50;7.05;;;17.30;99.90;;;;;;5105795;28;20159;-83
2021/07/23 00:45:19;;;;;;;12.65;7.40;;;17.30;99.90;;;;;;5100399;28;20039;-82
2021/07/23 00:47:48;;;;;;;11.15;7.32;;;17.30;99.90;;;;;;5109788;28;20040;-80
2021/07/23 00:50:14;;;;;;;11.18;7.10;;;17.30;99.90;;;;;;5092173;28;20051;-81
2021/07/23 00:52:40;;;;;;;;;;;17.30;99.90;;;;;;5094889;28;20114;-82
2021/07/23 00:55:07;;;;;;;;;;;17.20;99.90;;;;;;5100147;28;19976;-81
2021/07/23 00:57:32;;;;;;;;;;;17.20;99.90;;;;;;5111613;28;19916;-81
2021/07/23 00:59:59;;;;;;;;;;;17.20;99.90;;;;;;5102575;28;19923;-81
2021/07/23 01:02:25;;;;;;;;;;;17.20;99.90;;;;;;5089396;28;19916;-82
2021/07/23 01:04:51;;;;;;;;;;;17.20;99.90;;;;;;5111075;28;20395;-82
2021/07/23 01:07:17;;;;;;;;;;;17.20;99.90;;;;;;5089069;28;19923;-82
2021/07/23 01:09:42;;;;;;;;;;;17.20;99.90;;;;;;5092740;28;19915;-83
2021/07/23 01:12:08;;;;;;;;;;;17.20;99.90;;;;;;5111499;28;19928;-82
2021/07/23 01:14:34;;;;;;;;;;;17.20;99.90;;;;;;5112185;28;20010;-83
2021/07/23 01:17:00;;;;;;;;;;;17.20;99.90;;;;;;5112691;28;20060;-82
2021/07/23 01:19:26;;;;;;;;;;;17.20;99.90;;;;;;5115694;28;19923;-82
2021/07/23 01:21:54;;;;;;;;;;;17.20;99.90;;;;;;5114779;28;20379;-83
2021/07/23 01:24:21;;;;;;;;;;;17.10;99.90;;;;;;5113765;28;20287;-83
2021/07/23 01:26:48;;;;;;;;;;;17.10;99.90;;;;;;5101124;28;19959;-83
2021/07/23 01:29:13;;;;;;;;;;;17.10;99.90;;;;;;5113347;28;19916;-82
2021/07/23 01:31:41;;;;;;;;;;;17.10;99.90;;;;;;5101871;27;19919;-83
2021/07/23 01:34:06;;;;;;;;;;;17.10;99.90;;;;;;5111458;28;19930;-82
2021/07/23 01:36:32;;;;;;;;;;;17.10;99.90;;;;;;5094295;28;19924;-82
2021/07/23 01:38:59;;;;;;;;;;;17.10;99.90;;;;;;5090702;28;20372;-83
2021/07/23 01:41:25;;;;;;;;;;;17.10;99.90;;;;;;5094628;28;20483;-82
2021/07/23 01:43:50;;;;;;;;;;;17.00;99.90;;;;;;5090577;28;20010;-83
2021/07/23 01:46:16;;;;;;;;;;;17.00;99.90;;;;;;5090359;28;20391;-82
2021/07/23 01:48:41;;;;;;;;;;;17.00;99.90;;;;;;5067012;28;20015;-82
2021/07/23 01:51:08;;;;;;;;;;;17.00;99.90;;;;;;5091544;28;19920;-82
2021/07/23 01:53:34;;;;;;;;;;;17.00;99.90;;;;;;5079418;28;20286;-82
2021/07/23 01:56:00;;;;;;;;;;;17.00;99.90;;;;;;5090656;28;19916;-82
2021/07/23 01:58:27;;;;;;;;;;;17.00;99.90;;;;;;5088232;28;19967;-82
2021/07/23 02:00:57;;;;;;;;;;;17.00;99.90;;;;;;5077875;28;19916;-82
2021/07/23 02:03:23;;;;;;;;;;;17.00;99.90;;;;;;5083784;28;20332;-82
2021/07/23 02:05:49;;;;;;;;;;;17.00;99.90;;;;;;5091782;28;19916;-81
2021/07/23 02:08:15;;;;;;;;;;;17.00;99.90;;;;;;5095680;28;20375;-82
2021/07/23 02:10:40;;;;;;;;;;;17.00;99.90;;;;;;5091294;28;20277;-82
2021/07/23 02:13:06;;;;;;;;;;;17.00;99.90;;;;;;5093242;28;19927;-82
2021/07/23 02:15:32;;;;;;;;;;;16.90;99.90;;;;;;5091053;28;19924;-82
2021/07/23 02:17:57;;;;;;;;;;;16.90;99.90;;;;;;5084611;28;19916;-82
2021/07/23 02:20:23;;;;;;;;;;;16.90;99.90;;;;;;5093362;28;19942;-81
2021/07/23 02:22:49;;;;;;;;;;;16.90;99.90;;;;;;5082156;28;19959;-81
2021/07/23 02:25:15;;;;;;;;;;;16.90;99.90;;;;;;5091542;28;19916;-81
2021/07/23 02:27:41;;;;;;;;;;;16.90;99.90;;;;;;5088975;28;20007;-84
2021/07/23 02:30:07;;;;;;;;;;;16.90;99.90;;;;;;5085071;28;20007;-83
2021/07/23 02:32:33;;;;;;;;;;;16.90;99.90;;;;;;5075338;28;19963;-82
2021/07/23 02:34:58;;;;;;;;;;;16.90;99.90;;;;;;5077423;28;20392;-83
2021/07/23 02:37:24;;;;;;;;;;;16.90;99.90;;;;;;5102018;28;20377;-82
2021/07/23 02:39:50;;;;;;;;;;;16.90;99.90;;;;;;5108216;28;19916;-82
2021/07/23 02:42:15;;;;;;;;;;;16.90;99.90;;;;;;5114940;28;20010;-82
2021/07/23 02:44:41;;;;;;;;;;;16.90;99.90;;;;;;5100817;28;19916;-82
2021/07/23 02:47:07;;;;;;;;;;;16.90;99.90;;;;;;5104253;28;19920;-84
2021/07/23 02:49:32;;;;;;;;;;;16.80;99.90;;;;;;5085182;28;19927;-84
2021/07/23 02:51:58;;;;;;;;;;;16.90;99.90;;;;;;5103825;28;20429;-82
2021/07/23 02:54:24;;;;;;;;;;;16.90;99.90;;;;;;5093723;28;19927;-82
2021/07/23 02:56:50;;;;;;;;;;;16.90;99.90;;;;;;5100221;28;19916;-82
2021/07/23 02:59:15;;;;;;;;;;;16.90;99.90;;;;;;5107602;28;19920;-84
2021/07/23 03:01:41;;;;;;;;;;;16.90;99.90;;;;;;5106532;28;20407;-81
2021/07/23 03:04:06;;;;;;;;;;;16.90;99.90;;;;;;5112923;28;19919;-82
2021/07/23 03:06:32;;;;;;;;;;;16.90;99.90;;;;;;5114124;28;19916;-82
2021/07/23 03:08:58;;;;;;;;;;;16.80;99.90;;;;;;5112767;28;20101;-82
2021/07/23 03:11:24;;;;;;;;;;;16.80;99.90;;;;;;5113895;28;19915;-83
2021/07/23 03:13:49;;;;;;;;;;;16.80;99.90;;;;;;5084856;28;19915;-82
2021/07/23 03:16:15;;;;;;;;;;;16.80;99.90;;;;;;5113615;28;19927;-82
2021/07/23 03:18:41;;;;;;;;;;;16.80;99.90;;;;;;5113171;28;19939;-81
2021/07/23 03:21:10;;;;;;;;;;;16.80;99.90;;;;;;5105506;28;19997;-81
2021/07/23 03:23:38;;;;;;;;;;;16.80;99.90;;;;;;5109493;28;19927;-83
2021/07/23 03:26:04;;;;;;;;;;;16.70;99.90;;;;;;5094426;28;19915;-81
2021/07/23 03:28:31;;;;;;;;;;;16.80;99.90;;;;;;5107023;28;19927;-81
2021/07/23 03:30:57;;;;;;;;;;;16.80;99.90;;;;;;5105926;28;19919;-81
2021/07/23 03:33:25;;;;;;;;;;;16.70;99.90;;;;;;5093115;28;19920;-81
2021/07/23 03:35:51;;;;;;;;;;;16.70;99.90;;;;;;5084857;28;19916;-82
2021/07/23 03:38:17;;;;;;;;;;;16.70;99.90;;;;;;5108512;28;19968;-82
2021/07/23 03:40:43;;;;;;;;;;;16.70;99.90;;;;;;5108467;28;19921;-81
2021/07/23 03:43:08;;;;;;;;;;;16.70;99.90;;;;;;5112759;28;20018;-82
2021/07/23 03:45:34;;;;;;;;;;;16.70;99.90;;;;;;5112536;28;19916;-82
2021/07/23 03:48:02;;;;;;;;;;;16.70;99.90;;;;;;5091484;28;19980;-82
2021/07/23 03:50:28;;;;;;;;;;;16.70;99.90;;;;;;5092514;28;19924;-82
2021/07/23 03:52:54;;;;;;;;;;;16.70;99.90;;;;;;5097819;28;19920;-82
2021/07/23 03:55:20;;;;;;;;;;;16.70;99.90;;;;;;5091842;28;19972;-82
2021/07/23 03:57:46;;;;;;;;;;;16.70;99.90;;;;;;5096977;28;19958;-82
2021/07/23 04:00:14;;;;;;;;;;;16.70;99.90;;;;;;5105302;28;19920;-81
2021/07/23 04:02:43;;;;;;;;;;;16.70;99.90;;;;;;5111508;28;19924;-81
2021/07/23 04:05:11;;;;;;;;;;;16.70;99.90;;;;;;5099911;28;20404;-82
2021/07/23 04:07:37;;;;;;;;;;;16.70;99.90;;;;;;5111258;28;19923;-81
2021/07/23 04:10:03;;;;;;;;;;;16.70;99.90;;;;;;5111402;28;19926;-81
2021/07/23 04:12:29;;;;;;;;;;;16.70;99.90;;;;;;5089429;28;19916;-81
2021/07/23 04:14:55;;;;;;;;;;;16.70;99.90;;;;;;5103835;28;20018;-81
2021/07/23 04:17:21;;;;;;;;;;;16.60;99.90;;;;;;5112133;28;19916;-82
2021/07/23 04:19:46;;;;;;;;;;;16.60;99.90;;;;;;5111858;28;20014;-82
2021/07/23 04:22:12;;;;;;;;;;;16.60;99.90;;;;;;5090904;28;19916;-81
2021/07/23 04:24:38;;;;;;;;;;;16.60;99.90;;;;;;5099333;28;19969;-82
2021/07/23 04:27:03;;;;;;;;;;;16.60;99.90;;;;;;5091278;28;19923;-81
2021/07/23 04:29:29;;;;;;;;;;;16.60;99.90;;;;;;5104367;28;19961;-83
2021/07/23 04:31:55;;;;;;;;;;;16.60;99.90;;;;;;5084324;28;20361;-83
2021/07/23 04:34:21;;;;;;;;;;;16.60;99.90;;;;;;5103033;28;19942;-83
2021/07/23 04:36:47;;;;;;;;;;;16.60;99.90;;;;;;5060347;28;19925;-83
2021/07/23 04:39:12;;;;;;;;;;;16.70;99.90;;;;;;5091063;28;20030;-83
2021/07/23 04:41:38;;;;;;;;;;;16.70;99.90;;;;;;5091908;28;19981;-84
2021/07/23 04:44:04;;;;;;;;;;;16.70;99.90;;;;;;5089190;28;20415;-84
2021/07/23 04:46:29;;;;;;;;;;;16.70;99.90;;;;;;5089557;28;20006;-84
2021/07/23 04:48:58;;;;;;;;;;;16.70;99.90;;;;;;5080822;28;20015;-84
2021/07/23 04:51:24;;;;;;;;;;;16.70;99.90;;;;;;5089853;28;19967;-84
2021/07/23 04:53:50;;;;;;;;;;;16.70;99.90;;;;;;5083143;28;19942;-84
2021/07/23 04:56:20;;;;;;;;;;;16.70;99.90;;;;;;5088203;28;19943;-84
2021/07/23 04:58:45;;;;;;;;;;;16.70;99.90;;;;;;5080580;28;19967;-83
2021/07/23 05:01:11;;;;;;;;;;;16.70;99.90;;;;;;5077377;28;19915;-84
2021/07/23 05:03:37;;;;;;;;;;;16.70;99.90;;;;;;5092383;28;19992;-84
2021/07/23 05:06:04;;;;;;;;;;;16.80;99.90;;;;;;5085093;28;19923;-84
2021/07/23 05:08:29;;;;;;;;;;;16.70;99.90;;;;;;5103595;28;20362;-84
2021/07/23 05:10:55;;;;;;;;;;;16.70;99.90;;;;;;5089269;28;20493;-84
2021/07/23 05:13:21;;;;;;;;;;;16.80;99.90;;;;;;5089611;28;19916;-83
2021/07/23 05:15:47;;;;;;;;;;;16.80;99.90;;;;;;5090601;28;19920;-84
2021/07/23 05:18:13;;;;;;;;;;;16.80;99.90;;;;;;5081218;28;19981;-80
2021/07/23 05:20:39;;;;;;;;;;;16.80;99.90;;;;;;5088989;28;19916;-84
2021/07/23 05:23:04;;;;;;;;;;;16.80;99.90;;;;;;5088278;28;20023;-82
2021/07/23 05:25:33;;;;;;;;;;;16.80;99.90;;;;;;5085487;28;19916;-82
2021/07/23 05:27:59;;;;;;;;;;;16.80;99.90;;;;;;5078948;28;20289;-82
2021/07/23 05:30:25;;;;;;;;;;;16.80;99.90;;;;;;5077214;28;20007;-81
2021/07/23 05:32:51;;;;;;;;;;;16.80;99.90;;;;;;5081320;28;19948;-84
2021/07/23 05:35:18;;;;;;;;;;;16.80;99.90;;;;;;5060809;28;19920;-83
2021/07/23 05:37:45;;;;;;;;;;;16.80;99.90;;;;;;5100696;28;20325;-82
2021/07/23 05:40:11;;;;;;;;;;;16.80;99.90;;;;;;5079576;28;19920;-82
2021/07/23 05:42:37;;;;;;;;;;;16.80;99.90;;;;;;5088251;28;19916;-82
2021/07/23 05:45:03;;;;;;;;;;;16.80;99.90;;;;;;5112361;28;19915;-82
2021/07/23 05:47:29;;;;;;;;;;;16.80;99.90;;;;;;5113003;28;19915;-80
2021/07/23 05:49:55;;;;;;;;;;;16.80;99.90;;;;;;5105353;28;20002;-77
2021/07/23 05:52:20;;;;;;;;;;;16.70;99.90;;;;;;5109786;28;20376;-77
2021/07/23 05:54:47;;;;;;;;;;;16.70;99.90;;;;;;5084629;28;19973;-77
2021/07/23 05:57:12;;;;;;;;;;;16.70;99.90;;;;;;5102099;28;19923;-77
2021/07/23 05:59:38;;;;;;;;;;;16.80;99.90;;;;;;5108994;28;19920;-77
2021/07/23 06:02:03;;;;;;;;;;;16.70;99.90;;;;;;5109579;28;19916;-78
2021/07/23 06:04:29;;;;;;;;;;;16.70;99.90;;;;;;5082146;28;19915;-77
2021/07/23 06:06:55;;;;;;;;;;;16.70;99.90;;;;;;5114052;28;20269;-77
2021/07/23 06:09:21;;;;;;;;;;;16.70;99.90;;;;;;5113995;28;19919;-77
2021/07/23 06:11:46;;;;;;;;;;;16.60;99.90;;;;;;5097342;28;19931;-79
2021/07/23 06:14:12;;;;;;;;;;;16.70;99.90;;;;;;5107437;28;20423;-79
2021/07/23 06:16:42;;;;;;;;;;;16.70;99.90;;;;;;5122814;28;20022;-81
2021/07/23 06:19:07;;;;;;;;;;;16.80;99.90;;;;;;5091395;28;20038;-80
2021/07/23 06:21:34;;;;;;;;;;;16.80;99.90;;;;;;5106623;28;20014;-79
2021/07/23 06:24:00;;;;;;;;;;;16.80;99.90;;;;;;5086615;28;19916;-79
2021/07/23 06:26:25;;;;;;;;;;;16.90;99.90;;;;;;5113142;28;20413;-80
2021/07/23 06:28:51;;;;;;;;;;;16.90;99.90;;;;;;5111592;28;19923;-80
2021/07/23 06:31:17;;;;;;;;;;;16.90;99.90;;;;;;5102548;28;20038;-81
2021/07/23 06:33:43;;;;;;;;;;;17.00;99.90;;;;;;5085809;28;19923;-79
2021/07/23 06:36:09;;;;;;;;;;;17.00;99.90;;;;;;5094957;28;19961;-79
2021/07/23 06:38:35;;;;;;;;;;;17.00;99.90;;;;;;5084510;28;20373;-78
2021/07/23 06:41:00;;;;;;;;;;;17.10;99.90;;;;;;5114301;28;19915;-79
2021/07/23 06:43:26;;;;;;;;;;;17.20;99.90;;;;;;5113843;28;19927;-80
2021/07/23 06:45:52;;;;;;;;;;;17.20;99.90;;;;;;5107749;28;19916;-79
2021/07/23 06:48:18;;;;;;;;;;;17.30;99.90;;;;;;5098461;28;19916;-81
2021/07/23 06:50:43;;;;;;;;;;;17.30;99.90;;;;;;5102319;28;20006;-78
2021/07/23 06:53:09;;;;;;;;;;;17.40;99.90;;;;;;5101522;28;19916;-80
2021/07/23 06:55:35;;;;;;;;;;;17.40;99.90;;;;;;5100368;28;19920;-78
2021/07/23 06:58:00;;;;;;;;;;;17.50;99.90;;;;;;5097555;28;19915;-79
2021/07/23 07:00:26;;;;;;;;;;;17.50;99.90;;;;;;5104854;28;19927;-80
2021/07/23 07:02:52;;;;;;;;;;;17.50;99.90;;;;;;5079693;28;19920;-81
2021/07/23 07:05:18;;;;;;;;;;;17.50;99.90;;;;;;5114064;28;19926;-80
2021/07/23 07:07:44;;;;;;;;;;;17.50;99.90;;;;;;5091529;28;19930;-82
2021/07/23 07:10:10;;;;;;;;;;;17.60;99.90;;;;;;5085514;28;19920;-79
2021/07/23 07:12:36;;;;;;;;;;;17.60;99.90;;;;;;5082036;28;19941;-79
2021/07/23 07:15:02;;;;;;;;;;;17.70;99.90;;;;;;5106381;28;19915;-81
2021/07/23 07:17:29;;;;;;;;;;;17.70;99.90;;;;;;5110763;28;19919;-74
2021/07/23 07:19:57;;;;;;;;;;;17.80;99.90;;;;;;5117751;28;20383;-76
2021/07/23 07:22:24;;;;;;;;;;;17.80;99.90;;;;;;5109868;28;19916;-75
2021/07/23 07:24:49;;;;;;;;;;;17.90;99.90;;;;;;5091092;28;19938;-76
2021/07/23 07:27:16;;;;;;;;;;;17.90;99.90;;;;;;5109535;28;19974;-74
2021/07/23 07:29:42;;;;;;;;;;;17.90;99.90;;;;;;5102588;28;19927;-75
2021/07/23 07:32:08;;;;;;;;;;;18.00;99.90;;;;;;5105893;28;19932;-76
2021/07/23 07:34:34;;;;;;;;;;;18.00;99.90;;;;;;5085572;28;19916;-76
2021/07/23 07:37:01;;;;;;;;;;;18.00;99.90;;;;;;5102776;28;19920;-74
2021/07/23 07:39:27;;;;;;;;;;;18.10;99.90;;;;;;5103054;28;20288;-77
2021/07/23 07:41:53;;;;;;;;;;;18.20;99.90;;;;;;5111890;28;19919;-75
2021/07/23 07:44:19;;;;;;;;;;;18.20;99.90;;;;;;5108801;28;19916;-74
2021/07/23 07:46:44;;;;;;;;;;;18.30;99.90;;;;;;5094541;28;19923;-74
2021/07/23 07:49:10;;;;;;;;;;;18.40;99.90;;;;;;5110864;28;20438;-76
2021/07/23 07:51:35;;;;;;;;;;;18.40;99.90;;;;;;5109457;28;19920;-74
2021/07/23 07:54:01;;;;;;;;;;;18.50;99.90;;;;;;5109303;28;19919;-74
2021/07/23 07:56:27;;;;;;;;;;;18.60;99.90;;;;;;5087376;28;20011;-76
2021/07/23 07:58:52;;;;;;;;;;;18.70;99.90;;;;;;5104699;28;19931;-74
2021/07/23 08:01:18;;;;;;;;;;;18.80;99.90;;;;;;5108778;28;19922;-74
2021/07/23 08:03:44;;;;;;;;;;;19.00;99.90;;;;;;5110825;28;20001;-75
2021/07/23 08:06:21;;;;;;;;;;;19.20;99.90;;;;;;5080687;28;19915;-75
2021/07/23 08:08:48;;;;;;;;;;;19.30;99.90;;;;;;5101268;28;20026;-74
2021/07/23 08:11:14;;;;;;;;;;;19.50;99.90;;;;;;5105446;28;19965;-75
2021/07/23 08:13:39;;;;;;;;;;;19.60;99.90;;;;;;5096881;28;20004;-77
2021/07/23 08:16:05;;;;;;;;;;;19.60;99.90;;;;;;5109328;28;19927;-76
2021/07/23 08:18:31;;;;;;;;;;;19.80;99.90;;;;;;5109309;28;19915;-75
2021/07/23 08:20:59;;;;;;;;;;;19.80;99.90;;;;;;5105693;28;19922;-75
2021/07/23 08:23:25;;;;;;;;;;;19.90;99.90;;;;;;5079273;28;20007;-77
2021/07/23 08:25:50;;;;;;;;;;;20.00;99.90;;;;;;5093389;28;20065;-75
2021/07/23 08:28:16;;;;;;;;;;;20.10;99.90;;;;;;5094132;28;20414;-77
2021/07/23 08:30:42;;;;;;;;;;;20.20;99.90;;;;;;5104961;28;19915;-77
2021/07/23 08:33:08;;;;;;;;;;;20.20;99.90;;;;;;5110858;28;20318;-75
2021/07/23 08:35:35;;;;;;;;;;;20.20;99.90;;;;;;5103780;28;20365;-75
2021/07/23 08:38:02;;;;;;;;;;;20.20;99.90;;;;;;5105470;28;19926;-75
2021/07/23 08:40:28;;;;;;;;;;;20.20;99.90;;;;;;5106303;28;19916;-74
2021/07/23 08:42:53;;;;;;;;;;;20.30;99.90;;;;;;5101957;28;19926;-77
2021/07/23 08:45:20;;;;;;;;;;;20.30;99.90;;;;;;5104126;28;20010;-75
2021/07/23 08:47:46;;;;;;;;;;;20.30;99.90;;;;;;5087020;28;19920;-76
2021/07/23 08:50:12;;;;;;;;;;;20.40;99.90;;;;;;5092534;28;20052;-76
2021/07/23 08:52:37;;;;;;;;;;;20.50;99.90;;;;;;5097116;28;19944;-74
2021/07/23 08:55:04;;;;;;;;;;;20.70;99.90;;;;;;5106465;28;19965;-76
2021/07/23 08:57:30;;;;;;;;;;;20.90;99.90;;;;;;5109587;28;19916;-76
2021/07/23 08:59:55;;;;;;;;;;;21.00;99.90;;;;;;5110941;28;19938;-75
2021/07/23 09:02:21;;;;;;;;;;;21.10;99.90;;;;;;5102049;28;20358;-77
2021/07/23 09:04:46;;;;;;;;;;;21.20;99.90;;;;;;5090202;28;20014;-74
2021/07/23 09:07:12;;;;;;;;;;;21.30;99.90;;;;;;5103566;28;19915;-77
2021/07/23 09:09:41;;;;;;;;;;;21.30;99.90;;;;;;5100606;28;19970;-75
2021/07/23 09:12:07;;;;;;;;;;;21.30;99.90;;;;;;5109391;28;19924;-75
2021/07/23 09:14:33;;;;;;;;;;;21.20;99.90;;;;;;5097383;28;19942;-76
2021/07/23 09:16:59;;;;;;;;;;;21.20;99.90;;;;;;5111773;28;20375;-76
2021/07/23 09:19:25;;;;;;;;;;;21.20;99.90;;;;;;5110752;28;19922;-77
2021/07/23 09:21:57;;;;;;;;;;;21.10;99.90;;;;;;5111985;28;19980;-75
2021/07/23 09:24:24;;;;;;;;;;;21.00;99.90;;;;;;5110279;28;20400;-75
2021/07/23 09:26:49;;;;;;;;;;;21.00;99.90;;;;;;5111561;28;20414;-74
2021/07/23 09:29:15;;;;;;;;;;;20.70;99.90;;;;;;5099858;28;19920;-75
2021/07/23 09:32:01;;;;;;;;;;;20.60;99.90;;;;;;5102864;28;20368;-74
2021/07/23 09:34:30;;;;;;;;;;;20.60;99.90;;;;;;5100802;28;19924;-76
2021/07/23 09:37:05;;;;;;;;;;;20.50;99.90;;;;;;5110346;28;20038;-76
2021/07/23 09:39:31;;;;;;;;;;;20.50;99.90;;;;;;5094228;28;19926;-74
2021/07/23 09:42:01;;;;;;;;;;;20.60;99.90;;;;;;5111680;28;20010;-76
2021/07/23 09:44:27;;;;;;;;;;;20.70;99.90;;;;;;5103213;28;20289;-75
2021/07/23 09:46:53;;;;;;;;;;;20.70;99.90;;;;;;5094896;28;19922;-75
2021/07/23 09:49:29;;;;;;;;;;;20.70;99.90;;;;;;5114374;28;19916;-75
2021/07/23 09:51:56;;;;;;;;;;;20.70;99.90;;;;;;5115597;28;19947;-77
2021/07/23 09:54:22;;;;;;;;;;;20.80;99.90;;;;;;5091944;28;19959;-76
2021/07/23 09:56:48;;;;;;;;;;;20.90;99.90;;;;;;5115358;28;19919;-75
2021/07/23 09:59:22;;;;;;;;;;;21.10;99.90;;;;;;5115212;28;19965;-76
2021/07/23 10:01:50;;;;;;;;;;;21.30;99.90;;;;;;5097173;28;19919;-74
2021/07/23 10:04:31;;;;;;;;;;;21.50;99.90;;;;;;5113460;28;19973;-76
2021/07/23 10:07:00;;;;;;;;;;;21.70;99.90;;;;;;5105930;28;19920;-76
2021/07/23 10:09:27;;;;;;;;;;;21.90;99.90;;;;;;5107883;28;19927;-75
2021/07/23 10:11:54;;;;;;;;;;;21.90;99.90;;;;;;5110581;28;20392;-75
2021/07/23 10:14:20;;;;;;;;;;;22.10;99.90;;;;;;5089996;28;20423;-75
2021/07/23 10:16:47;;;;;;;;;;;22.10;99.90;;;;;;5106634;28;19995;-76
2021/07/23 10:19:13;;;;;;;;;;;22.10;99.90;;;;;;5114490;28;19980;-75
2021/07/23 10:21:39;;;;;;;;;;;21.90;99.90;;;;;;5114498;28;20420;-75
2021/07/23 10:24:05;;;;;;;;;;;21.70;99.90;;;;;;5113903;28;19968;-77
2021/07/23 10:26:31;;;;;;;;;;;21.70;99.90;;;;;;5113723;28;19961;-76
2021/07/23 10:28:57;;;;;;;;;;;21.80;99.90;;;;;;5081487;28;19970;-76
2021/07/23 10:31:27;;;;;;;;;;;21.90;99.90;;;;;;5114018;28;20273;-77
2021/07/23 10:33:55;;;;;;;;;;;21.90;99.90;;;;;;5112487;28;19915;-75
2021/07/23 10:36:27;;;;;;;;;;;21.80;99.90;;;;;;5113530;28;20376;-74
2021/07/23 10:39:19;;;;;;;;;;;21.80;99.90;;;;;;5109201;28;19927;-76
2021/07/23 10:41:45;;;;;;;;;;;21.70;99.90;;;;;;5105355;28;19919;-75
2021/07/23 10:44:12;;;;;;;;;;;21.60;99.90;;;;;;5114653;28;20262;-76
2021/07/23 10:46:44;;;;;;;;;;;21.40;99.90;;;;;;5114009;28;20388;-75
2021/07/23 10:49:10;;;;;;;;;;;21.20;99.90;;;;;;5113054;28;19984;-76
2021/07/23 10:51:52;;;;;;;;;;;21.10;99.90;;;;;;5112444;28;19916;-77
2021/07/23 10:54:19;;;;;;;;;;;21.00;99.90;;;;;;5101036;28;19916;-76
2021/07/23 10:59:40;;;;;;;;;;;20.80;99.90;;;;;;5099654;28;19920;-75
2021/07/23 11:02:06;;;;;;;;;;;20.70;99.90;;;;;;5104150;28;20010;-76
2021/07/23 11:04:32;;;;;;;;;;;20.60;99.90;;;;;;5112624;28;20459;-75
2021/07/23 11:07:02;;;;;;;;;;;20.60;99.90;;;;;;5113173;28;19916;-75
2021/07/23 11:09:36;;;;;;;;;;;20.60;99.90;;;;;;5088678;28;20373;-76
2021/07/23 11:12:14;;;;;;;;;;;20.50;99.90;;;;;;5096293;28;19919;-76
2021/07/23 11:14:40;;;;;;;;;;;20.30;99.90;;;;;;5100799;28;19951;-75
2021/07/23 11:17:06;;;;;;;;;;;20.10;99.90;;;;;;5093950;28;20000;-77
2021/07/23 11:19:32;;;;;;;;;;;19.90;99.90;;;;;;5099527;28;19915;-74
2021/07/23 11:21:57;;;;;;;;;;;19.80;99.90;;;;;;5113648;28;19922;-74
2021/07/23 11:24:33;;;;;;;;;;;19.70;99.90;;;;;;5105101;28;19939;-75
2021/07/23 11:26:58;;;;;;;;;;;19.70;99.90;;;;;;5095820;28;19916;-75
2021/07/23 11:29:30;;;;;;;;;;;19.70;99.90;;;;;;5112917;28;19996;-74
2021/07/23 11:32:12;;;;;;;;;;;19.70;99.90;;;;;;5100211;28;19922;-74
2021/07/23 11:34:39;;;;;;;;;;;19.70;99.90;;;;;;5112237;28;19916;-74
2021/07/23 11:37:31;;;;;;;;;;;19.80;99.90;;;;;;5113196;28;19920;-76
2021/07/23 11:39:57;;;;;;;;;;;19.70;99.90;;;;;;5107350;28;19926;-76
2021/07/23 11:42:25;;;;;;;;;;;19.70;99.90;;;;;;5109247;28;20373;-77
2021/07/23 11:44:52;;;;;;;;;;;19.60;99.90;;;;;;5116545;28;19922;-75
2021/07/23 11:47:27;;;;;;;;;;;19.60;99.90;;;;;;5113419;28;19947;-76
2021/07/23 11:49:54;;;;;;;;;;;19.50;99.90;;;;;;5112024;28;19920;-75
2021/07/23 11:52:20;;;;;;;;;;;19.50;99.90;;;;;;5086176;28;19965;-75
2021/07/23 11:54:46;;;;;;;;;;;19.50;99.90;;;;;;5107195;28;19915;-74
2021/07/23 11:57:12;;;;;;;;;;;19.50;99.90;;;;;;5113085;28;20285;-76
2021/07/23 11:59:38;;;;;;;;;;;19.60;99.90;;;;;;5108584;28;20053;-76
2021/07/23 12:02:10;;;;;;;;;;;19.60;99.90;;;;;;5112298;28;20018;-76
2021/07/23 12:04:41;;;;;;;;;;;19.60;99.90;;;;;;5111633;28;19992;-76
2021/07/23 12:07:07;;;;;;;;;;;19.60;99.90;;;;;;5112615;28;20281;-76
2021/07/23 12:09:33;;;;;;;;;;;19.70;99.90;;;;;;5109352;28;20003;-75
2021/07/23 12:11:59;;;;;;;;;;;19.80;99.90;;;;;;5111102;28;19958;-76
2021/07/23 12:14:27;;;;;;;;;;;19.80;99.90;;;;;;5110789;28;19923;-74
2021/07/23 12:16:53;;;;;;;;;;;19.90;99.90;;;;;;5093779;28;19916;-75
2021/07/23 12:19:19;;;;;;;;;;;19.90;99.90;;;;;;5095829;28;19941;-76
2021/07/23 12:21:45;;;;;;;;;;;20.00;99.90;;;;;;5100279;28;19926;-74
2021/07/23 12:24:11;;;;;;;;;;;20.00;99.90;;;;;;5110578;28;19980;-77
2021/07/23 12:26:37;;;;;;;;;;;20.20;99.90;;;;;;5111949;28;19919;-75
2021/07/23 12:29:05;;;;;;;;;;;20.30;99.90;;;;;;5111907;28;19919;-76
2021/07/23 12:31:31;;;;;;;;;;;20.40;99.90;;;;;;5100035;28;19948;-76
2021/07/23 12:34:03;;;;;;;;;;;20.50;99.90;;;;;;5109512;28;20336;-76
2021/07/23 12:36:29;;;;;;;;;;;20.50;99.90;;;;;;5111219;28;20292;-77
2021/07/23 12:39:01;;;;;;;;;;;20.60;99.90;;;;;;5110445;28;19919;-77
2021/07/23 12:41:27;;;;;;;;;;;20.60;99.90;;;;;;5110553;28;19920;-74
2021/07/23 12:44:12;;;;;;;;;;;20.70;99.90;;;;;;5110740;28;19919;-77
2021/07/23 12:46:38;;;;;;;;;;;20.80;99.90;;;;;;5111256;28;19972;-76
2021/07/23 12:49:22;;;;;;;;;;;21.00;99.90;;;;;;5111475;28;19919;-76
2021/07/23 12:52:02;;;;;;;;;;;21.30;99.90;;;;;;5097681;28;19919;-77
2021/07/23 12:54:38;;;;;;;;;;;21.70;99.90;;;;;;5097795;28;19916;-76
2021/07/23 12:57:16;;;;;;;;;;;21.90;99.90;;;;;;5075005;28;19961;-75
2021/07/23 12:59:42;;;;;;;;;;;22.10;99.90;;;;;;5106552;28;20101;-76
2021/07/23 13:02:07;;;;;;;;;;;22.20;99.90;;;;;;5093180;28;20370;-75
2021/07/23 13:04:33;;;;;;;;;;;22.40;99.90;;;;;;5095155;28;19961;-75
2021/07/23 13:06:59;;;;;;;;;;;22.50;99.90;;;;;;5101393;28;20002;-75
2021/07/23 13:09:25;;;;;;;;;;;22.60;99.90;;;;;;5089318;28;19919;-76
2021/07/23 13:11:50;;;;;;;;;;;22.80;99.90;;;;;;5088289;28;19946;-75
2021/07/23 13:14:19;;;;;;;;;;;23.00;99.90;;;;;;5095698;28;19919;-76
2021/07/23 13:16:45;;;;;;;;;;;23.00;99.90;;;;;;5104823;28;19920;-75
2021/07/23 13:19:11;;;;;;;;;;;22.90;99.10;;;;;;5109030;28;19955;-74
2021/07/23 13:21:38;;;;;;;;;;;22.80;99.80;;;;;;5089021;28;20011;-74
2021/07/23 13:24:03;;;;;;;;;;;22.80;99.10;;;;;;5115066;28;19915;-77
2021/07/23 13:26:29;;;;;;;;;;;22.80;99.90;;;;;;5086034;28;19916;-77
2021/07/23 13:28:55;;;;;;;;;;;22.90;99.90;;;;;;5112858;28;19927;-76
2021/07/23 13:31:21;;;;;;;;;;;23.00;99.90;;;;;;5104246;28;19923;-76
2021/07/23 13:33:50;;;;;;;;;;;23.10;99.90;;;;;;5112078;28;19987;-76
2021/07/23 13:36:19;;;;;;;;;;;23.10;99.90;;;;;;5115809;28;19920;-75
2021/07/23 13:38:51;;;;;;;;;;;22.90;99.90;;;;;;5114614;28;20376;-77
2021/07/23 13:41:17;;;;;;;;;;;22.80;99.90;;;;;;5108492;28;19958;-75
2021/07/23 13:43:43;;;;;;;;;;;22.90;99.90;;;;;;5111174;28;20014;-76
2021/07/23 13:46:09;;;;;;;;;;;23.00;99.90;;;;;;5096222;28;19919;-75
2021/07/23 13:48:35;;;;;;;;;;;23.00;99.90;;;;;;5113821;28;20156;-75
2021/07/23 13:51:00;;;;;;;;;;;23.00;98.30;;;;;;5115165;28;19919;-74
2021/07/23 13:53:26;;;;;;;;;;;22.80;99.30;;;;;;5109739;28;19994;-76
2021/07/23 13:55:52;;;;;;;;;;;22.80;99.30;;;;;;5106577;28;19941;-74
2021/07/23 13:58:17;;;;;;;;;;;22.80;99.90;;;;;;5115953;28;19999;-76
2021/07/23 14:00:44;;;;;;;;;;;22.80;99.00;;;;;;5103836;28;20014;-76
2021/07/23 14:03:09;;;;;;;;;;;22.70;99.50;;;;;;5078345;28;19922;-75
2021/07/23 14:05:35;;;;;;;;;;;22.60;98.10;;;;;;5114498;28;19916;-76
2021/07/23 14:08:01;;;;;;;;;;;22.60;99.20;;;;;;5096029;28;19938;-75
2021/07/23 14:10:26;;;;;;;;;;;22.50;98.60;;;;;;5106018;28;19927;-76
2021/07/23 14:12:52;;;;;;;;;;;22.50;99.20;;;;;;5113289;28;20006;-73